Time;durP1;ratioP1;P1;durP2;ratioP2;P2;SDS_P1;SDS_P2;PMS_P1;PMS_P2;Temp;Humidity;BMP_temperature;BMP_pressure;BME280_temperature;BME280_humidity;BME280_pressure;Samples;Min_cycle;Max_cycle;Signal;HPM_P1;HPM_P2
2022/01/18 00:01:53;;;;;;;8.13;0.95;;;2.90;99.90;;;;;;5095355;28;20034;-62
2022/01/18 00:04:20;;;;;;;2.45;0.65;;;2.90;99.90;;;;;;5095121;28;20024;-62
2022/01/18 00:06:50;;;;;;;5.68;0.70;;;2.80;99.90;;;;;;5093915;28;20388;-62
2022/01/18 00:09:19;;;;;;;2.83;0.70;;;2.90;99.90;;;;;;5081911;28;20102;-62
2022/01/18 00:11:51;;;;;;;6.65;0.80;;;2.80;99.90;;;;;;5074674;28;20442;-63
2022/01/18 00:14:41;;;;;;;1.48;0.73;;;2.80;99.90;;;;;;5056920;28;20024;-62
2022/01/18 00:17:19;;;;;;;3.20;0.98;;;2.80;99.90;;;;;;5074864;28;20411;-62
2022/01/18 00:19:54;;;;;;;4.63;1.15;;;2.80;99.90;;;;;;5056566;28;20032;-62
2022/01/18 00:22:22;;;;;;;2.90;0.88;;;2.70;99.90;;;;;;5074527;28;20384;-62
2022/01/18 00:24:48;;;;;;;6.03;1.05;;;2.70;99.90;;;;;;5056761;28;20411;-63
2022/01/18 00:27:16;;;;;;;5.60;0.73;;;2.80;99.90;;;;;;5056449;28;20025;-63
2022/01/18 00:30:46;;;;;;;6.50;0.60;;;2.80;99.90;;;;;;5074194;28;20048;-63
2022/01/18 00:34:57;;;;;;;3.10;0.70;;;2.70;99.90;;;;;;5074261;28;20094;-62
2022/01/18 00:37:34;;;;;;;2.05;0.60;;;2.80;99.90;;;;;;5056588;28;20089;-62
2022/01/18 00:40:00;;;;;;;5.40;0.90;;;2.70;99.90;;;;;;5074810;28;20077;-62
2022/01/18 00:42:26;;;;;;;3.75;0.57;;;2.70;99.90;;;;;;5074146;28;20116;-62
2022/01/18 00:44:52;;;;;;;5.30;0.50;;;2.60;99.90;;;;;;5056192;28;20031;-63
2022/01/18 00:47:18;;;;;;;2.58;0.68;;;2.70;99.90;;;;;;5074104;28;20380;-62
2022/01/18 00:49:46;;;;;;;3.67;0.73;;;2.60;99.90;;;;;;5056351;28;20037;-62
2022/01/18 00:52:15;;;;;;;6.13;0.70;;;2.60;99.90;;;;;;5074089;28;20070;-62
2022/01/18 00:54:44;;;;;;;1.77;0.55;;;2.60;99.90;;;;;;5074334;28;20094;-62
2022/01/18 00:57:10;;;;;;;3.33;0.65;;;2.70;99.90;;;;;;5073965;28;20027;-62
2022/01/18 00:59:36;;;;;;;2.30;0.85;;;2.70;99.90;;;;;;5056436;28;20036;-62
2022/01/18 01:02:02;;;;;;;2.10;0.90;;;2.70;99.90;;;;;;5073952;28;20063;-62
2022/01/18 01:04:32;;;;;;;3.17;0.90;;;2.70;99.90;;;;;;5073666;28;20036;-62
2022/01/18 01:06:57;;;;;;;7.70;0.82;;;2.60;99.90;;;;;;5056647;28;20028;-63
2022/01/18 01:09:23;;;;;;;2.28;0.88;;;2.60;99.90;;;;;;5077809;28;20058;-62
2022/01/18 01:11:50;;;;;;;4.03;1.38;;;2.50;99.90;;;;;;5094030;28;20098;-63
2022/01/18 01:14:21;;;;;;;8.30;0.95;;;2.40;99.90;;;;;;5094022;28;20028;-62
2022/01/18 01:19:30;;;;;;;3.83;0.63;;;2.20;99.90;;;;;;5093922;28;20028;-62
2022/01/18 01:43:38;;;;;;;3.63;2.05;;;2.30;99.90;;;;;;5073798;28;20040;-63
2022/01/18 01:46:04;;;;;;;14.73;1.10;;;2.30;99.90;;;;;;5093895;28;20059;-63
2022/01/18 01:48:30;;;;;;;5.20;1.27;;;2.30;99.90;;;;;;5093384;28;20426;-63
2022/01/18 01:51:05;;;;;;;5.47;0.82;;;2.20;99.90;;;;;;5093600;28;20028;-62
2022/01/18 01:53:32;;;;;;;6.32;1.15;;;2.20;99.90;;;;;;5093903;28;20380;-63
2022/01/18 01:55:58;;;;;;;4.97;0.85;;;2.20;99.90;;;;;;5093618;28;20024;-62
2022/01/18 01:58:25;;;;;;;3.03;0.90;;;2.20;99.90;;;;;;5092864;28;20024;-63
2022/01/18 02:01:02;;;;;;;6.45;0.90;;;2.20;99.90;;;;;;5093285;28;20382;-63
2022/01/18 02:03:28;;;;;;;2.63;1.00;;;2.10;99.90;;;;;;5093668;28;20052;-63
2022/01/18 02:05:53;;;;;;;4.22;0.98;;;2.20;99.90;;;;;;5093506;28;20109;-63
2022/01/18 02:08:20;;;;;;;5.38;0.70;;;2.00;99.90;;;;;;5091940;28;20047;-62
2022/01/18 02:10:46;;;;;;;6.07;1.23;;;2.00;99.90;;;;;;5093116;28;20369;-63
2022/01/18 02:13:13;;;;;;;7.03;0.80;;;1.90;99.90;;;;;;5092451;28;20031;-63
2022/01/18 02:21:46;;;;;;;3.30;0.90;;;1.90;99.90;;;;;;5093618;28;20024;-63
2022/01/18 02:23:54;;;;;;;4.75;0.95;;;1.60;99.90;;;;;;5092955;28;20113;-63
2022/01/18 02:26:19;;;;;;;6.65;1.00;;;1.60;99.90;;;;;;5093590;28;20455;-63
2022/01/18 02:28:45;;;;;;;4.38;0.77;;;1.50;99.90;;;;;;5093374;28;20467;-63
2022/01/18 02:31:10;;;;;;;4.82;1.05;;;1.50;99.90;;;;;;5091942;28;20456;-63
2022/01/18 02:33:36;;;;;;;9.68;1.20;;;1.50;99.90;;;;;;5095406;28;20028;-63
2022/01/18 02:36:07;;;;;;;4.97;0.80;;;1.40;99.90;;;;;;5096943;28;20024;-63
2022/01/18 02:38:33;;;;;;;8.38;1.10;;;1.40;99.90;;;;;;5096931;28;20028;-62
2022/01/18 02:40:59;;;;;;;2.63;0.90;;;1.30;99.90;;;;;;5096781;28;20034;-63
2022/01/18 02:46:11;;;;;;;8.82;1.33;;;1.30;99.90;;;;;;5096696;28;20026;-63
2022/01/18 02:48:37;;;;;;;2.55;0.73;;;1.20;99.90;;;;;;5096771;28;20024;-63
2022/01/18 02:51:03;;;;;;;1.58;0.70;;;1.20;99.90;;;;;;5096807;28;20122;-63
2022/01/18 02:53:28;;;;;;;0.88;0.70;;;1.20;99.90;;;;;;5097205;28;20554;-63
2022/01/18 02:55:57;;;;;;;5.72;1.00;;;1.20;99.90;;;;;;5097052;28;20028;-63
2022/01/18 02:58:28;;;;;;;5.88;1.23;;;1.20;99.90;;;;;;5095719;28;20024;-64
2022/01/18 03:03:38;;;;;;;4.82;0.93;;;1.10;99.90;;;;;;5096772;28;20376;-63
2022/01/18 03:06:06;;;;;;;3.58;1.20;;;1.10;99.90;;;;;;5096264;28;20024;-63
2022/01/18 03:08:33;;;;;;;3.95;0.90;;;1.10;99.90;;;;;;5094617;28;20052;-62
2022/01/18 03:11:00;;;;;;;5.30;0.98;;;1.00;99.90;;;;;;5095153;28;20028;-62
2022/01/18 03:13:25;;;;;;;3.90;1.27;;;0.90;99.90;;;;;;5096602;28;20103;-63
2022/01/18 03:15:51;;;;;;;7.30;1.40;;;0.90;99.90;;;;;;5096083;28;20051;-63
2022/01/18 03:18:17;;;;;;;3.85;0.85;;;0.80;99.90;;;;;;5096341;28;20028;-63
2022/01/18 03:20:43;;;;;;;4.07;0.90;;;0.80;99.90;;;;;;5094732;28;20028;-62
2022/01/18 03:23:14;;;;;;;5.50;1.02;;;0.70;99.90;;;;;;5095918;28;20028;-63
2022/01/18 03:25:52;;;;;;;2.72;0.60;;;0.70;99.90;;;;;;5094646;28;20024;-63
2022/01/18 03:28:18;;;;;;;2.97;0.90;;;0.60;99.90;;;;;;5095880;28;20024;-63
2022/01/18 03:30:47;;;;;;;4.97;1.05;;;0.60;99.90;;;;;;5095708;28;20468;-63
2022/01/18 03:33:15;;;;;;;4.80;0.63;;;0.50;99.90;;;;;;5095737;28;20020;-63
2022/01/18 03:35:42;;;;;;;6.30;0.50;;;0.60;99.90;;;;;;5095983;28;20048;-63
2022/01/18 03:38:09;;;;;;;9.88;1.02;;;0.60;99.90;;;;;;5094352;28;20028;-62
2022/01/18 03:40:36;;;;;;;2.15;0.75;;;0.60;99.90;;;;;;5095603;28;20031;-63
2022/01/18 03:43:02;;;;;;;3.92;1.02;;;0.60;99.90;;;;;;5095731;28;20142;-62
2022/01/18 03:45:39;;;;;;;3.55;0.98;;;0.70;99.90;;;;;;5095600;28;20028;-63
2022/01/18 03:48:08;;;;;;;7.25;0.80;;;0.70;99.90;;;;;;5095720;28;20032;-63
2022/01/18 03:50:34;;;;;;;3.08;1.60;;;0.70;99.90;;;;;;5095345;28;20123;-63
2022/01/18 03:52:59;;;;;;;6.82;0.90;;;0.60;99.90;;;;;;5095407;28;20067;-63
2022/01/18 03:55:25;;;;;;;4.53;1.05;;;0.60;99.90;;;;;;5095544;28;20028;-63
2022/01/18 03:57:51;;;;;;;2.63;0.82;;;0.60;99.90;;;;;;5095278;28;20031;-63
2022/01/18 04:00:21;;;;;;;1.48;0.45;;;0.60;99.90;;;;;;5095272;28;20077;-63
2022/01/18 04:02:47;;;;;;;7.82;1.08;;;0.70;99.90;;;;;;5093854;28;20053;-63
2022/01/18 04:05:13;;;;;;;3.38;1.33;;;0.70;99.90;;;;;;5093857;28;20032;-62
2022/01/18 04:07:39;;;;;;;7.22;0.80;;;0.70;99.90;;;;;;5093880;28;20031;-63
2022/01/18 04:10:07;;;;;;;3.35;0.80;;;0.70;99.90;;;;;;5093160;28;20048;-63
2022/01/18 04:12:34;;;;;;;3.67;0.85;;;0.70;99.90;;;;;;5095119;28;20031;-63
2022/01/18 04:15:04;;;;;;;13.18;1.27;;;0.70;99.90;;;;;;5094620;28;20457;-63
2022/01/18 04:17:46;;;;;;;6.00;0.82;;;0.70;99.90;;;;;;5095160;28;20028;-63
2022/01/18 04:26:51;;;;;;;3.40;0.90;;;0.70;99.90;;;;;;5060341;28;20032;-63
2022/01/18 04:28:47;;;;;;;5.38;0.85;;;0.70;99.90;;;;;;5094117;28;20032;-63
2022/01/18 04:31:13;;;;;;;5.70;1.25;;;0.60;99.90;;;;;;5094634;28;20380;-64
2022/01/18 04:33:39;;;;;;;3.50;0.90;;;0.60;99.90;;;;;;5094085;28;20028;-63
2022/01/18 04:36:06;;;;;;;2.67;0.70;;;0.60;99.90;;;;;;5094817;28;20435;-63
2022/01/18 04:38:32;;;;;;;5.03;1.02;;;0.50;99.90;;;;;;5093265;28;20467;-63
2022/01/18 04:41:04;;;;;;;2.25;0.85;;;0.50;99.90;;;;;;5093201;28;20077;-63
2022/01/18 04:48:55;;;;;;;2.42;0.80;;;0.40;99.90;;;;;;5094026;28;20119;-63
2022/01/18 04:51:21;;;;;;;4.20;2.03;;;0.30;99.90;;;;;;5094578;28;20503;-63
2022/01/18 04:53:52;;;;;;;4.95;0.80;;;0.30;99.90;;;;;;5094493;28;20085;-63
2022/01/18 04:56:28;;;;;;;2.08;0.95;;;1.30;99.90;;;;;;5094008;28;20023;-63
2022/01/18 04:58:54;;;;;;;12.23;1.55;;;2.00;99.90;;;;;;5094441;28;20028;-63
2022/01/18 05:01:20;;;;;;;6.65;1.02;;;0.20;99.90;;;;;;5094439;28;20032;-63
2022/01/18 05:03:45;;;;;;;4.78;1.23;;;1.50;99.90;;;;;;5094176;28;20031;-63
2022/01/18 05:06:15;;;;;;;2.25;1.02;;;0.10;99.90;;;;;;5092913;28;20028;-63
2022/01/18 05:08:41;;;;;;;5.68;0.60;;;0.10;99.90;;;;;;5087019;28;20129;-63
2022/01/18 05:11:11;;;;;;;6.20;0.90;;;1.10;99.90;;;;;;5073774;28;20076;-63
2022/01/18 05:21:36;;;;;;;9.63;1.38;;;0.00;99.90;;;;;;5073523;28;20491;-63
2022/01/18 05:24:02;;;;;;;5.40;1.30;;;0.00;99.90;;;;;;5073990;28;20028;-63
2022/01/18 05:26:29;;;;;;;3.15;1.42;;;-0.10;99.90;;;;;;5073652;28;20108;-63
2022/01/18 05:28:57;;;;;;;6.03;1.23;;;1.50;99.90;;;;;;5073567;28;20028;-64
2022/01/18 05:31:23;;;;;;;6.65;1.23;;;-0.10;99.90;;;;;;5055608;28;20492;-63
2022/01/18 05:33:49;;;;;;;6.53;1.17;;;0.30;99.90;;;;;;5055614;28;20082;-63
2022/01/18 05:36:15;;;;;;;7.55;1.30;;;0.00;99.90;;;;;;5055566;28;20033;-63
2022/01/18 05:38:40;;;;;;;4.53;1.40;;;0.00;99.90;;;;;;5073490;28;20430;-64
2022/01/18 05:41:08;;;;;;;5.93;1.15;;;0.00;99.90;;;;;;5073398;28;20033;-63
2022/01/18 05:43:34;;;;;;;3.17;0.88;;;0.10;99.90;;;;;;5073391;28;20037;-63
2022/01/18 05:46:00;;;;;;;3.63;1.10;;;1.70;99.90;;;;;;5073406;28;20034;-63
2022/01/18 05:48:26;;;;;;;10.43;1.30;;;0.10;99.90;;;;;;5073384;28;20067;-64
2022/01/18 05:50:54;;;;;;;1.88;1.20;;;0.10;99.90;;;;;;5055665;28;20032;-63
2022/01/18 05:53:20;;;;;;;4.35;1.38;;;1.70;99.90;;;;;;5073407;28;20079;-63
2022/01/18 05:55:46;;;;;;;8.35;1.48;;;0.10;99.90;;;;;;5073287;28;20097;-63
2022/01/18 05:58:12;;;;;;;8.70;1.63;;;0.10;99.90;;;;;;5073359;28;20032;-62
2022/01/18 06:00:40;;;;;;;4.93;1.15;;;0.60;99.90;;;;;;5055367;28;20029;-63
2022/01/18 06:03:14;;;;;;;2.95;1.45;;;0.20;99.90;;;;;;5055391;28;20029;-63
2022/01/18 06:08:25;;;;;;;6.60;1.40;;;0.40;99.90;;;;;;5074877;28;20182;-63
2022/01/18 06:10:51;;;;;;;5.75;1.48;;;0.20;99.90;;;;;;5076928;28;20127;-63
2022/01/18 06:13:16;;;;;;;7.30;1.20;;;1.00;99.90;;;;;;5059187;28;20047;-63
2022/01/18 06:15:42;;;;;;;7.32;1.00;;;0.20;99.90;;;;;;5076823;28;20024;-63
2022/01/18 06:18:08;;;;;;;5.57;1.23;;;0.20;99.90;;;;;;5076507;28;20449;-63
2022/01/18 06:20:34;;;;;;;4.63;1.60;;;0.20;99.90;;;;;;5076752;28;20082;-63
2022/01/18 06:23:00;;;;;;;3.08;0.90;;;1.90;99.90;;;;;;5076750;28;20376;-63
2022/01/18 06:25:26;;;;;;;3.97;1.45;;;0.80;99.90;;;;;;5058883;28;20082;-64
2022/01/18 06:27:53;;;;;;;8.40;1.52;;;0.20;99.90;;;;;;5058670;28;20024;-63
2022/01/18 06:30:19;;;;;;;6.22;1.30;;;0.20;99.90;;;;;;5058580;28;20082;-63
2022/01/18 06:32:45;;;;;;;9.02;2.70;;;0.40;99.90;;;;;;5076470;28;20111;-63
2022/01/18 06:35:13;;;;;;;5.75;2.00;;;1.70;99.90;;;;;;5076329;28;20055;-63
2022/01/18 06:37:39;;;;;;;6.20;1.75;;;0.20;99.90;;;;;;5076512;28;20081;-63
2022/01/18 06:40:06;;;;;;;6.35;1.40;;;0.20;99.90;;;;;;5076390;28;20066;-63
2022/01/18 06:42:32;;;;;;;6.28;1.65;;;0.20;99.90;;;;;;5076715;28;20075;-63
2022/01/18 06:44:58;;;;;;;6.03;1.77;;;0.20;99.90;;;;;;5076306;28;20452;-63
2022/01/18 06:47:23;;;;;;;6.07;1.63;;;2.00;99.90;;;;;;5076310;28;20060;-63
2022/01/18 06:49:49;;;;;;;9.02;2.22;;;0.40;99.90;;;;;;5075897;28;20036;-63
2022/01/18 06:52:16;;;;;;;6.63;2.15;;;2.40;99.90;;;;;;5076330;28;20107;-63
2022/01/18 06:54:42;;;;;;;9.88;2.65;;;0.20;99.90;;;;;;5076134;28;20479;-63
2022/01/18 06:57:07;;;;;;;8.27;2.47;;;2.50;99.90;;;;;;5076106;28;20059;-63
2022/01/18 06:59:34;;;;;;;8.95;2.65;;;0.20;99.90;;;;;;5075815;28;20035;-63
2022/01/18 07:02:00;;;;;;;8.10;2.53;;;0.30;99.90;;;;;;5058077;28;20032;-63
2022/01/18 07:04:26;;;;;;;12.00;3.00;;;1.60;99.90;;;;;;5075841;28;20427;-63
2022/01/18 07:06:52;;;;;;;9.80;2.75;;;1.80;99.90;;;;;;5075921;28;20103;-63
2022/01/18 07:09:22;;;;;;;9.93;3.83;;;0.40;99.90;;;;;;5075331;28;20143;-63
2022/01/18 07:11:49;;;;;;;8.82;2.95;;;0.60;99.90;;;;;;5075929;28;20035;-63
2022/01/18 07:14:15;;;;;;;11.65;4.15;;;0.50;99.90;;;;;;5057878;28;20464;-63
2022/01/18 07:16:41;;;;;;;7.53;2.95;;;0.50;99.90;;;;;;5075810;28;20078;-63
2022/01/18 07:19:06;;;;;;;10.90;3.40;;;0.50;99.90;;;;;;5057649;28;20032;-63
2022/01/18 07:21:32;;;;;;;7.30;3.05;;;1.50;99.90;;;;;;5075710;28;20075;-63
2022/01/18 07:24:04;;;;;;;8.70;3.58;;;0.80;99.90;;;;;;5057737;28;20028;-63
2022/01/18 07:26:31;;;;;;;3.97;1.90;;;0.70;99.90;;;;;;5057866;28;20024;-63
2022/01/18 07:28:57;;;;;;;5.93;2.20;;;0.80;99.90;;;;;;5075417;28;20120;-63
2022/01/18 07:31:23;;;;;;;12.48;2.72;;;0.90;99.90;;;;;;5075480;28;20100;-63
2022/01/18 07:33:48;;;;;;;7.28;2.75;;;2.40;99.90;;;;;;5057495;28;20024;-63
2022/01/18 07:36:14;;;;;;;5.32;2.58;;;1.10;99.90;;;;;;5075425;28;20033;-63
2022/01/18 07:38:40;;;;;;;7.25;2.78;;;1.10;99.90;;;;;;5075006;28;20028;-63
2022/01/18 07:41:05;;;;;;;6.57;2.30;;;1.20;99.90;;;;;;5057887;28;20380;-63
2022/01/18 07:43:31;;;;;;;7.75;2.50;;;1.30;99.90;;;;;;5075463;28;20470;-63
2022/01/18 07:45:57;;;;;;;9.75;2.45;;;1.40;99.90;;;;;;5075284;28;20029;-63
2022/01/18 07:48:23;;;;;;;8.32;2.47;;;1.60;99.90;;;;;;5074914;28;20031;-63
2022/01/18 07:50:51;;;;;;;4.25;1.92;;;1.70;99.90;;;;;;5074568;28;20388;-63
2022/01/18 07:53:18;;;;;;;6.25;2.08;;;1.80;99.90;;;;;;5074998;28;20419;-62
2022/01/18 07:55:44;;;;;;;5.97;2.40;;;2.80;99.90;;;;;;5074969;28;20038;-62
2022/01/18 07:58:09;;;;;;;8.13;1.75;;;2.00;99.90;;;;;;5056998;28;20099;-62
2022/01/18 08:00:35;;;;;;;6.50;1.45;;;2.20;99.90;;;;;;5074987;28;20107;-62
2022/01/18 08:03:01;;;;;;;9.13;1.75;;;3.50;99.90;;;;;;5074829;28;20458;-63
2022/01/18 08:05:27;;;;;;;9.95;2.03;;;2.40;99.90;;;;;;5056974;28;20029;-62
2022/01/18 08:07:52;;;;;;;4.38;1.60;;;2.50;99.90;;;;;;5074618;28;20031;-62
2022/01/18 08:10:18;;;;;;;11.13;2.05;;;2.60;99.90;;;;;;5074440;28;20040;-62
2022/01/18 08:12:46;;;;;;;7.60;1.92;;;2.70;99.90;;;;;;5074731;28;20063;-62
2022/01/18 08:15:16;;;;;;;5.20;1.90;;;3.10;99.90;;;;;;5056684;28;20529;-62
2022/01/18 08:17:44;;;;;;;5.43;2.33;;;3.40;99.90;;;;;;5074584;28;20063;-62
2022/01/18 08:20:13;;;;;;;6.90;1.95;;;3.80;99.90;;;;;;5074596;28;20028;-62
2022/01/18 08:22:40;;;;;;;4.05;1.65;;;3.90;99.90;;;;;;5074510;28;20060;-62
2022/01/18 08:25:07;;;;;;;6.47;1.63;;;4.10;99.90;;;;;;5056475;28;20111;-62
2022/01/18 08:27:32;;;;;;;7.15;1.85;;;4.50;99.90;;;;;;5074099;28;20431;-62
2022/01/18 08:29:58;;;;;;;4.82;1.48;;;4.70;99.90;;;;;;5073812;28;20032;-62
2022/01/18 08:32:24;;;;;;;6.38;1.88;;;4.90;99.90;;;;;;5073938;28;20508;-62
2022/01/18 08:34:49;;;;;;;8.52;2.28;;;5.20;99.90;;;;;;5074399;28;20020;-62
2022/01/18 08:37:15;;;;;;;6.13;2.05;;;5.40;99.90;;;;;;5056167;28;20063;-62
2022/01/18 08:39:41;;;;;;;3.53;1.02;;;5.60;99.90;;;;;;5074146;28;20074;-62
2022/01/18 08:42:08;;;;;;;6.20;1.10;;;5.40;99.90;;;;;;5074526;28;20449;-62
2022/01/18 08:44:35;;;;;;;4.90;2.13;;;5.30;99.90;;;;;;5056497;28;20020;-62
2022/01/18 08:47:00;;;;;;;3.78;1.15;;;5.40;99.90;;;;;;5074069;28;20050;-62
2022/01/18 08:49:26;;;;;;;9.63;1.83;;;5.60;99.90;;;;;;5055608;28;20041;-63
2022/01/18 08:51:52;;;;;;;7.05;1.27;;;5.70;99.90;;;;;;5074289;28;20021;-62
2022/01/18 08:54:20;;;;;;;6.40;2.03;;;5.80;99.90;;;;;;5073850;28;20024;-63
2022/01/18 08:56:46;;;;;;;7.93;1.83;;;6.10;99.90;;;;;;5074712;28;20368;-63
2022/01/18 08:59:11;;;;;;;5.75;1.27;;;6.50;99.90;;;;;;5073607;28;20032;-63
2022/01/18 09:01:37;;;;;;;4.88;0.95;;;6.80;99.90;;;;;;5074007;28;20526;-62
2022/01/18 09:04:03;;;;;;;8.15;1.40;;;6.80;99.90;;;;;;5073911;28;20032;-62
2022/01/18 09:06:30;;;;;;;4.57;1.00;;;7.10;99.90;;;;;;5073792;28;20039;-62
2022/01/18 09:08:57;;;;;;;7.90;1.45;;;7.00;99.90;;;;;;5073636;28;20040;-63
2022/01/18 09:11:24;;;;;;;5.03;1.30;;;6.70;99.90;;;;;;5055808;28;20036;-62
2022/01/18 09:13:51;;;;;;;4.20;1.63;;;6.70;99.90;;;;;;5073421;28;20430;-63
2022/01/18 09:16:19;;;;;;;4.53;1.00;;;7.10;99.90;;;;;;5073714;28;20021;-63
2022/01/18 09:18:45;;;;;;;8.50;1.88;;;7.40;99.90;;;;;;5073736;28;20120;-63
2022/01/18 09:21:11;;;;;;;6.70;1.42;;;7.40;99.90;;;;;;5073869;28;20041;-62
2022/01/18 09:23:39;;;;;;;7.35;1.05;;;7.70;99.90;;;;;;5073322;28;20020;-62
2022/01/18 09:26:05;;;;;;;7.18;1.40;;;7.90;99.90;;;;;;5073733;28;20441;-63
2022/01/18 09:28:31;;;;;;;3.30;1.20;;;8.50;99.90;;;;;;5055601;28;20484;-62
2022/01/18 09:30:57;;;;;;;9.20;1.10;;;8.50;99.30;;;;;;5073471;28;20027;-62
2022/01/18 09:33:22;;;;;;;5.15;1.70;;;8.80;98.70;;;;;;5073290;28;20451;-62
2022/01/18 09:35:48;;;;;;;3.70;1.92;;;8.60;97.90;;;;;;5073246;28;20021;-62
2022/01/18 09:38:14;;;;;;;3.60;1.05;;;8.60;98.70;;;;;;5055641;28;20056;-64
2022/01/18 09:40:40;;;;;;;5.63;1.40;;;8.50;98.50;;;;;;5073236;28;20032;-63
2022/01/18 09:43:10;;;;;;;3.78;1.40;;;8.90;98.70;;;;;;5058589;28;20070;-62
2022/01/18 09:45:39;;;;;;;4.30;1.13;;;9.20;96.90;;;;;;5059897;28;20082;-62
2022/01/18 09:48:23;;;;;;;5.03;1.30;;;9.00;96.20;;;;;;5077517;28;20032;-62
2022/01/18 09:50:49;;;;;;;8.65;1.73;;;8.80;96.30;;;;;;5059248;28;20075;-62
2022/01/18 09:53:15;;;;;;;7.88;1.70;;;8.60;95.80;;;;;;5059459;28;20064;-62
2022/01/18 09:55:41;;;;;;;8.18;1.50;;;8.70;96.80;;;;;;5059359;28;20029;-62
2022/01/18 09:58:08;;;;;;;6.13;1.35;;;9.20;95.60;;;;;;5077304;28;20079;-62
2022/01/18 10:00:37;;;;;;;4.85;1.15;;;9.40;94.40;;;;;;5077193;28;20035;-62
2022/01/18 10:03:04;;;;;;;4.72;1.25;;;9.60;92.60;;;;;;5077429;28;20054;-63
2022/01/18 10:05:33;;;;;;;5.40;1.30;;;9.10;92.40;;;;;;5077294;28;20032;-62
2022/01/18 10:08:02;;;;;;;5.40;1.08;;;9.20;93.40;;;;;;5077075;28;20093;-63
2022/01/18 10:10:47;;;;;;;;;;;8.70;93.80;;;;;;5060093;28;20422;-62
2022/01/18 10:13:24;;;;;;;5.35;0.85;;;8.20;95.40;;;;;;5058779;28;19908;-63
2022/01/18 10:16:03;;;;;;;9.15;0.90;;;7.40;96.40;;;;;;5076944;28;20024;-63
2022/01/18 10:18:48;;;;;;;9.57;1.17;;;6.80;97.00;;;;;;5059329;28;20034;-63
2022/01/18 10:21:44;;;;;;;2.83;0.95;;;6.40;99.80;;;;;;5076856;28;20444;-62
2022/01/18 10:24:23;;;;;;;6.80;1.08;;;6.20;99.90;;;;;;5076830;28;20028;-62
2022/01/18 10:26:53;;;;;;;8.02;0.90;;;6.00;99.90;;;;;;5077014;28;20028;-63
2022/01/18 10:29:35;;;;;;;5.65;1.08;;;6.10;99.90;;;;;;5076685;28;20064;-62
2022/01/18 10:32:32;;;;;;;1.35;0.73;;;6.20;99.90;;;;;;5058747;28;20040;-62
2022/01/18 10:37:28;;;;;;;2.38;0.73;;;5.60;99.90;;;;;;5076571;28;20027;-62
2022/01/18 10:39:56;;;;;;;2.33;0.70;;;5.40;99.90;;;;;;5076678;28;20075;-64
2022/01/18 10:42:39;;;;;;;5.85;0.82;;;5.40;99.90;;;;;;5076301;28;20031;-63
2022/01/18 10:45:07;;;;;;;11.35;1.20;;;5.50;99.90;;;;;;5058837;28;20029;-62
2022/01/18 10:47:34;;;;;;;9.50;1.70;;;6.00;99.90;;;;;;5076455;28;20074;-63
2022/01/18 10:50:12;;;;;;;5.28;1.13;;;6.50;99.30;;;;;;5058017;28;20032;-62
2022/01/18 10:52:38;;;;;;;7.83;0.80;;;7.10;98.00;;;;;;5076246;28;20063;-63
2022/01/18 10:55:05;;;;;;;10.32;1.00;;;7.40;95.90;;;;;;5057338;28;20263;-62
2022/01/18 10:57:36;;;;;;;5.68;1.40;;;7.70;94.80;;;;;;5076109;28;20020;-62
2022/01/18 11:00:05;;;;;;;9.68;1.20;;;7.50;93.70;;;;;;5076172;28;20368;-62
2022/01/18 11:02:35;;;;;;;5.00;0.77;;;8.00;93.60;;;;;;5076091;28;20027;-62
2022/01/18 11:05:17;;;;;;;10.60;1.52;;;7.70;91.70;;;;;;5057993;28;20060;-62
2022/01/18 11:07:45;;;;;;;3.05;0.65;;;7.30;93.00;;;;;;5076304;28;20464;-63
2022/01/18 11:10:12;;;;;;;6.85;0.82;;;7.20;93.20;;;;;;5092987;28;20556;-64
2022/01/18 11:12:57;;;;;;;6.25;0.80;;;7.70;93.80;;;;;;5096203;28;20024;-63
2022/01/18 11:15:26;;;;;;;4.72;1.02;;;8.30;90.90;;;;;;5096174;28;20027;-63
2022/01/18 11:18:37;;;;;;;8.15;1.63;;;8.70;90.30;;;;;;5096635;28;20066;-63
2022/01/18 11:20:48;;;;;;;5.75;0.82;;;9.10;81.30;;;;;;5090648;28;20039;-62
2022/01/18 11:23:14;;;;;;;7.15;1.02;;;9.00;82.50;;;;;;5095915;28;20340;-63
2022/01/18 11:25:40;;;;;;;4.97;1.00;;;9.00;82.60;;;;;;5095862;28;20020;-63
2022/01/18 11:28:08;;;;;;;4.68;0.90;;;8.80;88.20;;;;;;5094594;28;20047;-62
2022/01/18 11:30:37;;;;;;;6.05;1.00;;;9.20;84.10;;;;;;5095752;28;20024;-63
2022/01/18 11:33:06;;;;;;;10.15;1.20;;;9.30;79.40;;;;;;5095805;28;20073;-63
2022/01/18 11:35:51;;;;;;;11.60;1.00;;;8.80;85.80;;;;;;5095630;28;20077;-64
2022/01/18 11:38:35;;;;;;;9.70;1.15;;;8.90;87.60;;;;;;5094426;28;20024;-68
2022/01/18 11:41:02;;;;;;;11.88;1.80;;;9.00;90.60;;;;;;5095994;28;20039;-63
2022/01/18 11:43:42;;;;;;;4.47;1.00;;;8.50;90.90;;;;;;5095526;28;20410;-64
2022/01/18 11:46:27;;;;;;;10.10;1.38;;;7.80;93.70;;;;;;5095794;28;20033;-64
2022/01/18 11:49:01;;;;;;;8.48;1.27;;;7.60;95.20;;;;;;5095428;28;20024;-63
2022/01/18 11:51:38;;;;;;;5.65;1.23;;;7.20;96.80;;;;;;5094492;28;20069;-62
2022/01/18 11:54:24;;;;;;;8.85;1.13;;;7.60;96.10;;;;;;5095254;28;20016;-62
2022/01/18 11:56:49;;;;;;;6.45;1.13;;;8.60;93.40;;;;;;5095093;28;20027;-63
2022/01/18 11:59:18;;;;;;;5.55;1.00;;;9.90;87.50;;;;;;5093622;28;20028;-63
2022/01/18 12:01:51;;;;;;;5.10;0.82;;;11.00;77.10;;;;;;5093883;28;20028;-63
2022/01/18 12:07:06;;;;;;;4.78;1.13;;;9.00;85.70;;;;;;5095080;28;20028;-62
2022/01/18 12:09:40;;;;;;;7.28;1.05;;;8.60;86.70;;;;;;5081394;28;20084;-63
2022/01/18 12:12:35;;;;;;;8.32;1.10;;;8.50;86.20;;;;;;5074558;28;20020;-63
2022/01/18 12:15:01;;;;;;;4.55;1.00;;;8.00;90.00;;;;;;5035014;28;20368;-63
2022/01/18 12:17:45;;;;;;;4.97;0.90;;;7.00;92.70;;;;;;5056694;28;20031;-63
2022/01/18 12:20:57;;;;;;;7.35;1.90;;;6.90;94.30;;;;;;5074818;28;20031;-63
2022/01/18 12:23:28;;;;;;;6.20;0.93;;;7.00;94.20;;;;;;5073810;28;20028;-63
2022/01/18 12:26:01;;;;;;;6.15;1.13;;;7.30;94.20;;;;;;5074479;28;20024;-63
2022/01/18 12:34:30;;;;;;;4.18;0.90;;;6.40;95.80;;;;;;5074392;28;20098;-63
2022/01/18 12:37:24;;;;;;;4.47;0.85;;;6.20;97.30;;;;;;5057115;28;20067;-62
2022/01/18 12:39:50;;;;;;;6.38;1.00;;;6.50;97.60;;;;;;5074276;28;20372;-63
2022/01/18 12:45:10;;;;;;;7.53;1.23;;;8.00;93.10;;;;;;5074195;28;20036;-63
2022/01/18 12:47:41;;;;;;;5.05;1.92;;;7.90;90.10;;;;;;5056153;28;20534;-62
2022/01/18 12:50:10;;;;;;;6.78;1.35;;;8.20;90.80;;;;;;5073708;28;20093;-63
2022/01/18 12:52:56;;;;;;;13.13;1.55;;;8.40;86.20;;;;;;5074070;28;20029;-63
2022/01/18 12:55:40;;;;;;;5.70;1.00;;;8.00;89.30;;;;;;5074433;28;20082;-63
2022/01/18 12:58:34;;;;;;;10.45;1.05;;;7.70;91.20;;;;;;5074146;28;20108;-63
2022/01/18 13:01:10;;;;;;;7.60;1.60;;;7.40;91.90;;;;;;5073714;28;20503;-63
2022/01/18 13:03:40;;;;;;;3.80;0.90;;;7.20;92.30;;;;;;5056089;28;20029;-63
2022/01/18 13:06:09;;;;;;;7.47;0.82;;;7.00;93.00;;;;;;5056107;28;20052;-62
2022/01/18 13:08:43;;;;;;;4.15;0.68;;;6.70;94.00;;;;;;5073855;28;20488;-63
2022/01/18 13:11:11;;;;;;;4.15;0.82;;;6.40;95.60;;;;;;5056124;28;20040;-62
2022/01/18 13:13:36;;;;;;;9.45;1.23;;;6.20;96.50;;;;;;5056456;28;20035;-63
2022/01/18 13:27:10;;;;;;;10.18;1.33;;;5.50;97.40;;;;;;5073425;28;20052;-63
2022/01/18 13:29:36;;;;;;;8.85;1.08;;;5.40;98.30;;;;;;5073820;28;20032;-63
2022/01/18 13:32:04;;;;;;;4.15;0.68;;;5.30;99.40;;;;;;5073416;28;20024;-63
2022/01/18 13:34:39;;;;;;;6.60;1.05;;;5.20;99.60;;;;;;5055469;28;20479;-63
2022/01/18 13:37:08;;;;;;;7.70;1.10;;;5.30;99.90;;;;;;5073571;28;20082;-62
2022/01/18 13:39:54;;;;;;;9.52;1.08;;;5.20;99.90;;;;;;5073336;28;20059;-63
2022/01/18 13:42:26;;;;;;;3.80;1.58;;;5.00;99.90;;;;;;5073679;28;20033;-62
2022/01/18 13:45:16;;;;;;;6.35;1.23;;;5.00;99.90;;;;;;5056289;28;20064;-62
2022/01/18 13:47:52;;;;;;;6.85;1.90;;;4.90;99.90;;;;;;5025419;28;20059;-63
2022/01/18 13:50:43;;;;;;;6.55;1.48;;;4.70;99.90;;;;;;5073379;28;20029;-63
2022/01/18 13:53:11;;;;;;;7.57;1.10;;;4.70;99.90;;;;;;5073193;28;20362;-63
2022/01/18 13:55:44;;;;;;;6.93;1.35;;;4.80;99.90;;;;;;5073982;28;20054;-63
2022/01/18 13:58:09;;;;;;;5.07;1.25;;;5.00;99.90;;;;;;5056050;28;20047;-63
2022/01/18 14:00:35;;;;;;;10.55;1.67;;;5.00;99.90;;;;;;5073018;28;20480;-63
2022/01/18 14:03:01;;;;;;;9.30;1.55;;;5.00;99.90;;;;;;5055255;28;20020;-63
2022/01/18 14:05:27;;;;;;;4.80;1.63;;;5.00;99.90;;;;;;5055443;28;20024;-62
2022/01/18 14:08:11;;;;;;;7.93;1.10;;;4.90;99.90;;;;;;5073283;28;20024;-62
2022/01/18 14:10:37;;;;;;;7.80;1.10;;;4.80;99.90;;;;;;5073398;28;20036;-63
2022/01/18 14:13:03;;;;;;;5.43;0.93;;;4.60;99.90;;;;;;5073284;28;20028;-66
2022/01/18 14:15:39;;;;;;;6.13;1.38;;;4.40;99.90;;;;;;5073183;28;20111;-66
2022/01/18 14:18:06;;;;;;;3.50;1.05;;;4.30;99.90;;;;;;5073271;28;20068;-66
2022/01/18 14:20:32;;;;;;;5.55;1.23;;;4.10;99.90;;;;;;5071344;28;20127;-67
2022/01/18 14:23:00;;;;;;;11.07;1.40;;;4.00;99.90;;;;;;5073148;28;20025;-65
2022/01/18 14:25:31;;;;;;;11.13;1.50;;;4.00;99.90;;;;;;5073466;28;20060;-65
2022/01/18 14:28:11;;;;;;;7.65;1.80;;;3.90;99.90;;;;;;5071828;28;20079;-65
2022/01/18 14:30:37;;;;;;;5.18;1.20;;;3.80;99.90;;;;;;5076668;28;20119;-65
2022/01/18 14:33:07;;;;;;;4.47;1.20;;;3.70;99.90;;;;;;5076002;28;20085;-69